createdAt,value
2019-03-28T00:01:45.926Z,29.87
2019-03-28T00:04:15.737Z,26.57
2019-03-28T00:06:45.586Z,42.17
2019-03-28T00:09:16.027Z,36.57
2019-03-28T00:11:45.945Z,47.63
2019-03-28T00:14:15.857Z,29.93
2019-03-28T00:16:45.698Z,35.50
2019-03-28T00:19:15.520Z,27.73
2019-03-28T00:21:45.349Z,37.53
2019-03-28T00:24:27.885Z,37.90
2019-03-28T00:26:57.742Z,29.37
2019-03-28T00:29:28.385Z,45.07
2019-03-28T00:31:58.381Z,35.43
2019-03-28T00:34:28.597Z,38.47
2019-03-28T00:36:58.467Z,37.27
2019-03-28T00:39:28.333Z,52.30
2019-03-28T00:41:58.201Z,36.57
2019-03-28T00:44:28.015Z,34.23
2019-03-28T00:46:57.920Z,28.20
2019-03-28T00:49:27.786Z,38.40
2019-03-28T00:51:57.622Z,30.03
2019-03-28T00:54:27.502Z,28.93
2019-03-28T00:56:57.301Z,39.00
2019-03-28T00:59:27.139Z,37.00
2019-03-28T01:01:56.942Z,28.00
2019-03-28T01:04:27.235Z,43.13
2019-03-28T01:06:57.362Z,42.33
2019-03-28T01:09:27.248Z,28.07
2019-03-28T01:11:57.129Z,39.90
2019-03-28T01:14:26.975Z,36.57
2019-03-28T01:16:56.770Z,40.67
2019-03-28T01:19:26.577Z,32.60
2019-03-28T01:21:56.409Z,28.93
2019-03-28T01:24:26.225Z,26.83
2019-03-28T01:26:57.509Z,36.67
2019-03-28T01:29:27.606Z,39.53
2019-03-28T01:31:57.485Z,31.07
2019-03-28T01:34:27.294Z,35.37
2019-03-28T01:36:57.177Z,38.30
2019-03-28T01:39:26.990Z,34.20
2019-03-28T01:41:56.869Z,38.40
2019-03-28T01:44:26.715Z,41.10
2019-03-28T01:46:56.583Z,35.23
2019-03-28T01:49:26.393Z,28.03
2019-03-28T01:51:56.278Z,36.83
2019-03-28T01:54:26.224Z,42.33
2019-03-28T01:56:56.031Z,33.50
2019-03-28T01:59:25.880Z,35.80
2019-03-28T02:01:55.755Z,30.13
2019-03-28T02:04:25.559Z,30.70
2019-03-28T02:06:55.382Z,40.53
2019-03-28T02:09:25.187Z,30.70
2019-03-28T02:11:54.997Z,46.83
2019-03-28T02:14:24.843Z,32.87
2019-03-28T02:16:54.644Z,32.40
2019-03-28T02:19:24.489Z,30.57
2019-03-28T02:21:54.318Z,39.90
2019-03-28T02:24:24.122Z,31.67
2019-03-28T02:26:54.015Z,36.83
2019-03-28T02:29:24.013Z,32.93
2019-03-28T02:31:53.828Z,31.43
2019-03-28T02:34:23.706Z,26.70
2019-03-28T02:36:53.544Z,28.03
2019-03-28T02:39:24.408Z,37.47
2019-03-28T02:41:54.348Z,28.60
2019-03-28T02:44:24.328Z,34.13
2019-03-28T02:46:54.121Z,38.43
2019-03-28T02:49:23.927Z,30.10
2019-03-28T02:51:53.758Z,44.13
2019-03-28T02:54:23.646Z,37.43
2019-03-28T02:56:53.456Z,30.57
2019-03-28T02:59:23.283Z,42.90
2019-03-28T03:01:53.263Z,33.50
2019-03-28T03:04:23.575Z,38.80
2019-03-28T03:06:53.427Z,35.27
2019-03-28T03:09:23.255Z,34.33
2019-03-28T03:11:53.068Z,37.30
2019-03-28T03:14:22.893Z,37.00
2019-03-28T03:16:52.727Z,36.73
2019-03-28T03:19:22.532Z,36.27
2019-03-28T03:21:52.363Z,41.93
2019-03-28T03:24:22.193Z,29.97
2019-03-28T03:26:52.065Z,35.20
2019-03-28T03:29:21.897Z,39.93
2019-03-28T03:31:53.632Z,50.97
2019-03-28T03:34:23.518Z,41.43
2019-03-28T03:36:53.345Z,36.93
2019-03-28T03:39:23.172Z,35.83
2019-03-28T03:41:52.974Z,38.10
2019-03-28T03:44:22.806Z,34.40
2019-03-28T03:46:53.731Z,33.57
2019-03-28T03:49:23.706Z,28.17
2019-03-28T03:51:53.557Z,35.67
2019-03-28T03:54:23.371Z,32.37
2019-03-28T03:56:53.257Z,37.70
2019-03-28T03:59:23.103Z,35.90
2019-03-28T04:01:52.973Z,33.13
2019-03-28T04:04:22.782Z,36.20
2019-03-28T04:06:52.686Z,37.23
2019-03-28T04:09:22.582Z,43.63
2019-03-28T04:11:52.414Z,34.20
2019-03-28T04:14:22.235Z,41.67
2019-03-28T04:16:52.046Z,30.23
2019-03-28T04:19:21.956Z,38.50
2019-03-28T04:21:51.778Z,40.87
2019-03-28T04:24:21.961Z,33.30
2019-03-28T04:26:52.134Z,30.23
2019-03-28T04:29:21.945Z,44.80
2019-03-28T04:31:51.773Z,32.10
2019-03-28T04:34:21.660Z,33.07
2019-03-28T04:36:51.544Z,36.40
2019-03-28T04:39:21.389Z,36.70
2019-03-28T04:41:51.213Z,37.40
2019-03-28T04:44:21.663Z,33.70
2019-03-28T04:46:51.595Z,35.33
2019-03-28T04:49:21.421Z,35.50
2019-03-28T04:51:51.227Z,50.60
2019-03-28T04:54:21.040Z,37.13
2019-03-28T04:56:50.868Z,37.73
2019-03-28T04:59:20.764Z,33.60
2019-03-28T05:02:02.702Z,39.23
2019-03-28T05:04:22.150Z,35.57
2019-03-28T05:06:51.958Z,35.17
2019-03-28T05:09:21.756Z,35.57
2019-03-28T05:11:51.577Z,48.60
2019-03-28T05:14:21.383Z,46.83
2019-03-28T05:16:51.169Z,36.23
2019-03-28T05:19:21.048Z,33.97
2019-03-28T05:21:50.853Z,42.90
2019-03-28T05:24:20.640Z,48.40
2019-03-28T05:26:50.468Z,43.97
2019-03-28T05:29:20.271Z,43.60
2019-03-28T05:31:50.072Z,45.40
2019-03-28T05:34:19.893Z,42.47
2019-03-28T05:36:52.106Z,50.27
2019-03-28T05:39:21.262Z,41.13
2019-03-28T05:41:51.092Z,50.07
2019-03-28T05:44:20.880Z,51.00
2019-03-28T05:46:50.685Z,37.37
2019-03-28T05:49:20.826Z,46.63
2019-03-28T05:51:50.616Z,35.10
2019-03-28T05:54:20.448Z,48.00
2019-03-28T05:56:50.253Z,41.30
2019-03-28T05:59:20.119Z,41.10
2019-03-28T06:01:49.987Z,43.53
2019-03-28T06:04:19.821Z,41.67
2019-03-28T06:06:49.629Z,40.00
2019-03-28T06:09:19.574Z,48.50
2019-03-28T06:11:49.429Z,41.80
2019-03-28T06:14:19.228Z,40.17
2019-03-28T06:16:49.053Z,56.80
2019-03-28T06:19:18.842Z,42.70
2019-03-28T06:21:48.641Z,43.30
2019-03-28T06:24:18.544Z,46.73
2019-03-28T06:26:49.982Z,44.30
2019-03-28T06:29:24.057Z,41.03
2019-03-28T06:31:55.623Z,43.20
2019-03-28T06:34:23.240Z,57.53
2019-03-28T06:36:53.056Z,51.47
2019-03-28T06:39:22.861Z,45.87
2019-03-28T06:41:52.681Z,48.40
2019-03-28T06:44:22.556Z,44.73
2019-03-28T06:46:52.372Z,49.93
2019-03-28T06:49:22.280Z,49.20
2019-03-28T06:51:52.078Z,40.43
2019-03-28T06:54:24.160Z,42.70
2019-03-28T06:56:53.421Z,47.37
2019-03-28T06:59:36.222Z,46.97
2019-03-28T07:01:54.756Z,61.77
2019-03-28T07:04:24.592Z,48.47
2019-03-28T07:06:54.404Z,46.20
2019-03-28T07:09:24.232Z,36.70
2019-03-28T07:11:54.088Z,56.03
2019-03-28T07:14:23.908Z,49.83
2019-03-28T07:16:53.720Z,40.93
2019-03-28T07:19:23.571Z,43.40
2019-03-28T07:21:53.384Z,48.60
2019-03-28T07:24:23.200Z,47.40
2019-03-28T07:26:53.070Z,48.47
2019-03-28T07:29:22.881Z,45.50
2019-03-28T07:31:52.689Z,49.00
2019-03-28T07:34:22.524Z,45.67
2019-03-28T07:36:52.352Z,57.77
2019-03-28T07:39:23.172Z,42.83
2019-03-28T07:41:53.064Z,47.17
2019-03-28T07:44:22.886Z,50.10
2019-03-28T07:46:52.793Z,36.23
2019-03-28T07:49:22.687Z,50.03
2019-03-28T07:51:52.546Z,50.87
2019-03-28T07:54:22.358Z,39.60
2019-03-28T07:56:52.183Z,50.40
2019-03-28T07:59:21.989Z,49.50
2019-03-28T08:01:51.817Z,48.30
2019-03-28T08:04:21.745Z,59.53
2019-03-28T08:06:51.926Z,52.10
2019-03-28T08:09:22.045Z,44.20
2019-03-28T08:11:51.893Z,44.73
2019-03-28T08:14:21.718Z,54.67
2019-03-28T08:16:51.607Z,48.27
2019-03-28T08:19:21.462Z,46.10
2019-03-28T08:21:51.294Z,42.90
2019-03-28T08:24:21.105Z,50.30
2019-03-28T08:26:50.946Z,38.33
2019-03-28T08:29:20.761Z,54.30
2019-03-28T08:31:51.368Z,48.13
2019-03-28T08:34:21.219Z,45.70
2019-03-28T08:36:52.390Z,39.40
2019-03-28T08:39:23.242Z,49.03
2019-03-28T08:41:53.171Z,41.23
2019-03-28T08:44:23.034Z,42.03
2019-03-28T08:46:52.835Z,47.50
2019-03-28T08:49:22.680Z,41.90
2019-03-28T08:51:52.517Z,46.43
2019-03-28T08:54:22.382Z,63.23
2019-03-28T08:56:52.227Z,46.93
2019-03-28T08:59:22.077Z,68.90
2019-03-28T09:01:51.963Z,67.07
2019-03-28T09:04:21.810Z,46.87
2019-03-28T09:06:51.640Z,48.93
2019-03-28T09:09:21.559Z,59.50
2019-03-28T09:11:51.419Z,49.23
2019-03-28T09:14:21.254Z,57.57
2019-03-28T09:16:51.232Z,56.90
2019-03-28T09:19:21.386Z,50.43
2019-03-28T09:21:51.429Z,53.23
2019-03-28T09:24:21.291Z,58.97
2019-03-28T09:26:51.610Z,56.00
2019-03-28T09:29:24.478Z,40.00
2019-03-28T09:31:54.916Z,53.67
2019-03-28T09:34:24.804Z,46.03
2019-03-28T09:36:54.710Z,47.63
2019-03-28T09:39:25.141Z,66.40
2019-03-28T09:41:55.202Z,57.87
2019-03-28T09:44:25.162Z,50.23
2019-03-28T09:46:56.369Z,54.73
2019-03-28T09:49:26.560Z,47.53
2019-03-28T09:51:56.579Z,53.60
2019-03-28T09:54:26.426Z,56.93
2019-03-28T09:56:56.254Z,53.23
2019-03-28T09:59:26.069Z,48.80
2019-03-28T10:01:55.902Z,52.53
2019-03-28T10:04:25.730Z,53.90
2019-03-28T10:06:55.596Z,69.20
2019-03-28T10:09:25.456Z,68.43
2019-03-28T10:11:55.249Z,61.83
2019-03-28T10:14:25.150Z,57.43
2019-03-28T10:16:54.982Z,58.73
2019-03-28T10:19:25.039Z,59.50
2019-03-28T10:21:54.877Z,56.60
2019-03-28T10:24:24.736Z,58.93
2019-03-28T10:26:54.553Z,58.33
2019-03-28T10:29:24.369Z,52.90
2019-03-28T10:31:54.304Z,59.80
2019-03-28T10:34:24.126Z,73.33
2019-03-28T10:36:54.683Z,49.90
2019-03-28T10:39:24.509Z,59.07
2019-03-28T10:41:54.896Z,68.20
2019-03-28T10:44:24.958Z,56.30
2019-03-28T10:46:54.774Z,48.93
2019-03-28T10:49:24.582Z,51.47
2019-03-28T10:51:54.436Z,46.93
2019-03-28T10:54:25.725Z,55.00
2019-03-28T10:56:57.904Z,44.10
2019-03-28T10:59:27.486Z,55.30
2019-03-28T11:01:57.285Z,47.80
2019-03-28T11:04:27.089Z,47.63
2019-03-28T11:06:56.943Z,49.27
2019-03-28T11:09:26.831Z,43.00
2019-03-28T11:11:56.645Z,56.67
2019-03-28T11:14:26.555Z,54.33
2019-03-28T11:16:56.378Z,63.70
2019-03-28T11:19:26.199Z,50.70
2019-03-28T11:21:56.041Z,42.00
2019-03-28T11:24:25.855Z,42.93
2019-03-28T11:26:55.766Z,33.10
2019-03-28T11:29:25.599Z,27.93
2019-03-28T11:31:55.410Z,34.30
2019-03-28T11:34:25.221Z,25.53
2019-03-28T11:36:55.084Z,33.70
2019-03-28T11:39:25.789Z,31.83
2019-03-28T11:41:55.635Z,24.70
2019-03-28T11:44:25.460Z,20.97
2019-03-28T11:46:55.323Z,23.93
2019-03-28T11:49:25.157Z,37.20
2019-03-28T11:51:54.967Z,36.17
2019-03-28T11:54:24.884Z,31.53
2019-03-28T11:56:54.719Z,32.30
2019-03-28T11:59:24.529Z,33.10
2019-03-28T12:02:00.026Z,36.43
2019-03-28T12:04:25.942Z,36.60
2019-03-28T12:06:55.764Z,32.80
2019-03-28T12:09:25.669Z,29.57
2019-03-28T12:11:55.569Z,34.07
2019-03-28T12:14:25.376Z,34.20
2019-03-28T12:16:55.185Z,34.80
2019-03-28T12:19:25.036Z,33.33
2019-03-28T12:21:54.946Z,31.30
2019-03-28T12:24:24.828Z,30.73
2019-03-28T12:26:54.665Z,35.87
2019-03-28T12:29:24.466Z,35.20
2019-03-28T12:31:54.284Z,28.27
2019-03-28T12:34:24.112Z,34.53
2019-03-28T12:36:54.028Z,29.00
2019-03-28T12:39:23.839Z,31.23
2019-03-28T12:41:53.704Z,37.60
2019-03-28T12:44:23.516Z,33.00
2019-03-28T12:46:53.346Z,35.80
2019-03-28T12:49:23.701Z,43.30
2019-03-28T12:51:53.565Z,32.87
2019-03-28T12:54:23.632Z,57.07
2019-03-28T12:56:53.623Z,37.23
2019-03-28T12:59:23.618Z,34.53
2019-03-28T13:01:55.135Z,40.70
2019-03-28T13:04:25.522Z,38.40
2019-03-28T13:06:55.395Z,33.20
2019-03-28T13:09:25.238Z,36.90
2019-03-28T13:11:55.057Z,49.60
2019-03-28T13:14:24.868Z,39.77
2019-03-28T13:16:54.702Z,41.57
2019-03-28T13:19:24.538Z,38.50
2019-03-28T13:21:54.354Z,34.57
2019-03-28T13:24:24.167Z,40.53
2019-03-28T13:26:54.020Z,27.33
2019-03-28T13:29:23.829Z,44.37
2019-03-28T13:31:53.645Z,41.73
2019-03-28T13:34:23.489Z,40.33
2019-03-28T13:36:53.672Z,36.80
2019-03-28T13:39:23.485Z,39.43
2019-03-28T13:41:53.349Z,35.63
2019-03-28T13:44:23.160Z,36.07
2019-03-28T13:46:53.061Z,29.40
2019-03-28T13:49:22.924Z,34.17
2019-03-28T13:51:52.750Z,43.67
2019-03-28T13:54:23.397Z,39.67
2019-03-28T13:56:53.379Z,41.73
2019-03-28T13:59:23.198Z,59.27
2019-03-28T14:01:53.009Z,48.80
2019-03-28T14:04:22.841Z,31.53
2019-03-28T14:06:52.656Z,54.00
2019-03-28T14:09:23.390Z,44.07
2019-03-28T14:11:53.517Z,44.40
2019-03-28T14:14:23.346Z,42.37
2019-03-28T14:16:53.376Z,45.77
2019-03-28T14:19:23.262Z,45.57
2019-03-28T14:21:53.088Z,41.77
2019-03-28T14:24:22.909Z,44.87
2019-03-28T14:26:52.821Z,45.97
2019-03-28T14:29:22.621Z,44.70
2019-03-28T14:31:52.516Z,42.10
2019-03-28T14:34:22.340Z,44.80
2019-03-28T14:36:52.160Z,51.03
2019-03-28T14:39:22.049Z,47.60
2019-03-28T14:41:51.920Z,56.33
2019-03-28T14:44:22.158Z,45.90
2019-03-28T14:46:51.973Z,45.30
2019-03-28T14:49:21.985Z,57.80
2019-03-28T14:51:51.923Z,48.60
2019-03-28T14:54:22.302Z,51.83
2019-03-28T14:56:52.667Z,55.57
2019-03-28T14:59:32.491Z,43.63
2019-03-28T15:01:54.295Z,47.20
2019-03-28T15:04:24.149Z,55.03
2019-03-28T15:06:53.957Z,57.47
2019-03-28T15:09:23.771Z,48.13
2019-03-28T15:11:53.608Z,49.23
2019-03-28T15:14:23.458Z,53.30
2019-03-28T15:16:53.262Z,55.07
2019-03-28T15:19:23.098Z,51.97
2019-03-28T15:21:52.902Z,49.40
2019-03-28T15:24:22.706Z,63.90
2019-03-28T15:26:52.637Z,62.47
2019-03-28T15:29:22.590Z,49.60
2019-03-28T15:31:52.386Z,50.57
2019-03-28T15:34:22.225Z,48.77
2019-03-28T15:36:52.048Z,59.53
2019-03-28T15:39:21.928Z,50.67
2019-03-28T15:41:51.854Z,65.40
2019-03-28T15:44:21.656Z,56.47
2019-03-28T15:46:51.641Z,62.07
2019-03-28T15:49:21.724Z,54.50
2019-03-28T15:51:51.520Z,58.20
2019-03-28T15:54:21.350Z,60.07
2019-03-28T15:56:51.179Z,52.80
2019-03-28T15:59:20.986Z,61.47
2019-03-28T16:01:50.828Z,57.47
2019-03-28T16:04:20.655Z,55.27
2019-03-28T16:06:50.638Z,58.97
2019-03-28T16:09:20.553Z,62.87
2019-03-28T16:12:02.013Z,63.73
2019-03-28T16:14:22.073Z,62.77
2019-03-28T16:16:51.974Z,58.53
2019-03-28T16:19:21.819Z,57.67
2019-03-28T16:21:51.733Z,64.70
2019-03-28T16:24:21.600Z,64.70
2019-03-28T16:26:51.485Z,62.13
2019-03-28T16:29:21.287Z,59.40
2019-03-28T16:31:51.663Z,56.83
2019-03-28T16:34:21.779Z,61.23
2019-03-28T16:36:51.635Z,64.00
2019-03-28T16:39:21.604Z,51.40
2019-03-28T16:41:51.444Z,53.63
2019-03-28T16:44:21.317Z,57.27
2019-03-28T16:46:51.142Z,42.83
2019-03-28T16:49:21.018Z,57.33
2019-03-28T16:51:51.709Z,42.80
2019-03-28T16:54:21.779Z,51.33
2019-03-28T16:56:51.703Z,50.00
2019-03-28T16:59:21.606Z,60.77
2019-03-28T17:01:51.573Z,55.00
2019-03-28T17:04:22.865Z,54.10
2019-03-28T17:06:53.252Z,44.10
2019-03-28T17:09:25.436Z,62.10
2019-03-28T17:11:55.345Z,47.53
2019-03-28T17:14:26.276Z,50.63
2019-03-28T17:16:56.477Z,44.13
2019-03-28T17:19:26.348Z,48.60
2019-03-28T17:21:56.220Z,56.23
2019-03-28T17:24:26.073Z,48.63
2019-03-28T17:26:56.033Z,51.50
2019-03-28T17:29:26.050Z,58.63
2019-03-28T17:31:56.067Z,48.00
2019-03-28T17:34:35.158Z,67.80
2019-03-28T17:37:00.684Z,52.10
2019-03-28T17:39:30.552Z,64.17
2019-03-28T17:42:00.411Z,53.73
2019-03-28T17:44:30.286Z,57.67
2019-03-28T17:47:00.113Z,52.37
2019-03-28T17:49:29.964Z,59.83
2019-03-28T17:51:59.817Z,58.50
2019-03-28T17:54:29.633Z,65.17
2019-03-28T17:56:59.490Z,53.17
2019-03-28T17:59:29.302Z,52.93
2019-03-28T18:01:59.117Z,52.03
2019-03-28T18:04:28.973Z,50.87
2019-03-28T18:06:58.838Z,59.73
2019-03-28T18:09:28.895Z,62.80
2019-03-28T18:11:58.834Z,58.07
2019-03-28T18:14:28.644Z,60.77
2019-03-28T18:16:59.585Z,59.30
2019-03-28T18:19:29.500Z,70.03
2019-03-28T18:22:03.727Z,58.27
2019-03-28T18:24:30.893Z,54.30
2019-03-28T18:27:00.701Z,57.70
2019-03-28T18:29:30.626Z,56.77
2019-03-28T18:32:00.500Z,61.87
2019-03-28T18:34:30.350Z,53.60
2019-03-28T18:37:00.160Z,53.20
2019-03-28T18:39:30.010Z,74.00
2019-03-28T18:41:59.877Z,50.70
2019-03-28T18:44:29.753Z,49.37
2019-03-28T18:46:59.561Z,49.67
2019-03-28T18:49:29.484Z,47.53
2019-03-28T18:51:59.392Z,50.77
2019-03-28T18:54:29.213Z,50.67
2019-03-28T18:56:59.031Z,51.40
2019-03-28T18:59:28.893Z,50.50
2019-03-28T19:01:58.719Z,46.37
2019-03-28T19:04:28.619Z,53.13
2019-03-28T19:06:58.585Z,53.93
2019-03-28T19:09:28.423Z,44.20
2019-03-28T19:11:58.334Z,47.93
2019-03-28T19:14:28.181Z,46.90
2019-03-28T19:16:58.081Z,46.30
2019-03-28T19:19:38.650Z,46.53
2019-03-28T19:21:59.531Z,57.83
2019-03-28T19:24:29.338Z,48.57
2019-03-28T19:26:59.157Z,44.57
2019-03-28T19:29:29.074Z,44.83
2019-03-28T19:31:58.958Z,53.13
2019-03-28T19:34:28.877Z,48.93
2019-03-28T19:36:59.267Z,50.33
2019-03-28T19:39:31.394Z,49.93
2019-03-28T19:42:04.221Z,53.20
2019-03-28T19:44:32.877Z,47.77
2019-03-28T19:47:02.733Z,54.93
2019-03-28T19:49:32.606Z,52.47
2019-03-28T19:52:02.509Z,48.73
2019-03-28T19:54:32.474Z,45.30
2019-03-28T19:57:02.350Z,45.83
2019-03-28T19:59:32.171Z,41.13
2019-03-28T20:02:01.990Z,46.37
2019-03-28T20:04:31.795Z,46.93
2019-03-28T20:07:01.643Z,57.30
2019-03-28T20:09:31.460Z,55.67
2019-03-28T20:12:03.458Z,44.23
2019-03-28T20:14:32.833Z,49.20
2019-03-28T20:17:02.734Z,51.00
2019-03-28T20:19:32.545Z,48.83
2019-03-28T20:22:02.394Z,50.63
2019-03-28T20:24:32.254Z,46.77
2019-03-28T20:27:02.182Z,47.20
2019-03-28T20:29:33.524Z,49.40
2019-03-28T20:32:03.412Z,45.70
2019-03-28T20:34:33.235Z,58.47
2019-03-28T20:37:03.173Z,43.10
2019-03-28T20:39:33.167Z,44.17
2019-03-28T20:42:03.118Z,47.13
2019-03-28T20:44:32.971Z,45.40
2019-03-28T20:47:02.865Z,48.70
2019-03-28T20:49:32.721Z,44.73
2019-03-28T20:52:02.633Z,43.50
2019-03-28T20:54:32.476Z,42.17
2019-03-28T20:57:02.303Z,49.63
2019-03-28T20:59:32.150Z,49.77
2019-03-28T21:02:01.961Z,48.20
2019-03-28T21:04:32.050Z,44.13
2019-03-28T21:07:02.027Z,50.17
2019-03-28T21:09:31.848Z,54.03
2019-03-28T21:12:01.904Z,52.47
2019-03-28T21:14:31.774Z,49.00
2019-03-28T21:17:01.614Z,47.77
2019-03-28T21:19:31.569Z,49.23
2019-03-28T21:22:01.516Z,51.90
2019-03-28T21:24:31.412Z,52.27
2019-03-28T21:27:01.338Z,64.87
2019-03-28T21:29:33.813Z,53.63
2019-03-28T21:32:02.832Z,47.33
2019-03-28T21:34:32.718Z,49.43
2019-03-28T21:37:02.570Z,59.03
2019-03-28T21:39:32.472Z,47.93
2019-03-28T21:42:02.293Z,52.80
2019-03-28T21:44:32.137Z,59.37
2019-03-28T21:47:01.945Z,53.20
2019-03-28T21:49:31.788Z,51.60
2019-03-28T21:52:01.621Z,59.33
2019-03-28T21:54:31.439Z,54.70
2019-03-28T21:57:01.264Z,46.93
2019-03-28T21:59:31.099Z,55.70
2019-03-28T22:02:00.940Z,49.60
2019-03-28T22:04:30.793Z,55.83
2019-03-28T22:07:00.641Z,50.90
2019-03-28T22:09:30.454Z,59.27
2019-03-28T22:12:00.872Z,62.87
2019-03-28T22:14:31.000Z,57.73
2019-03-28T22:17:00.854Z,66.43
2019-03-28T22:19:30.768Z,64.10
2019-03-28T22:22:01.954Z,59.93
2019-03-28T22:24:32.229Z,54.07
2019-03-28T22:27:02.057Z,59.07
2019-03-28T22:29:31.879Z,55.00
2019-03-28T22:32:01.745Z,62.13
2019-03-28T22:34:31.556Z,52.17
2019-03-28T22:37:03.635Z,46.57
2019-03-28T22:39:32.065Z,53.23
2019-03-28T22:42:02.276Z,56.13
2019-03-28T22:44:33.835Z,61.27
2019-03-28T22:47:03.784Z,71.83
2019-03-28T22:49:33.626Z,58.47
2019-03-28T22:52:03.441Z,59.70
2019-03-28T22:54:33.284Z,60.70
2019-03-28T22:57:03.102Z,58.27
2019-03-28T22:59:32.917Z,60.63
2019-03-28T23:02:03.151Z,52.83
2019-03-28T23:04:33.028Z,55.47
2019-03-28T23:07:10.924Z,60.37
2019-03-28T23:09:34.387Z,56.60
2019-03-28T23:12:04.220Z,56.20
2019-03-28T23:14:34.022Z,52.70
2019-03-28T23:17:03.901Z,45.43
2019-03-28T23:19:36.529Z,43.27
2019-03-28T23:22:06.347Z,53.37
2019-03-28T23:24:38.946Z,53.07
2019-03-28T23:27:07.747Z,52.17
2019-03-28T23:29:37.573Z,57.23
2019-03-28T23:32:07.433Z,56.47
2019-03-28T23:34:37.240Z,48.67
2019-03-28T23:37:07.041Z,53.27
2019-03-28T23:39:37.722Z,61.40
2019-03-28T23:42:07.692Z,55.37
2019-03-28T23:44:37.589Z,50.50
2019-03-28T23:47:07.432Z,50.17
2019-03-28T23:49:38.787Z,54.13
2019-03-28T23:52:08.865Z,45.27
2019-03-28T23:54:38.780Z,50.57
2019-03-28T23:57:08.590Z,50.77
2019-03-28T23:59:38.455Z,51.33
